Airfield :
LOGIN :

Register | Disclaimer

   EN    FR    IT 

 










Legend :    VFR   Marginal VFR   IFR   Intensive IFR   Very Intensive IFR
Visi :
Ceiling :
>= 8 km
>= 3000ft
5 to 8 km
1000 to 3000 ft
1500m to 5 km
500 to 1000 ft
800 to 1500m
200 to 500 ft
< 800m
< 200 ft
Symbols :   Thunderstorms  Fog  Heavy snow  Heavy precipitations  Wind > 20 kt
SIGMETs :     Misc.  Thunderstorms  Icing  Turbulence  Mountain Waves  Volcanic Ashes






- Airport Elevation : 375 ft
- IATA code : MST


EHBK - Maastricht Aachen

CURRENT METAR :
  • 032125Z AUTO 31003KT 270V340 9999 NCD 15/10 Q1020

EXPIRED METARs :
  • 032055Z AUTO 33003KT 9999 NCD 16/10 Q1020 NOSIG
  • 032025Z AUTO 34003KT 9999 NCD 16/10 Q1020 NOSIG
  • 031955Z AUTO 33006KT 9999 NCD 17/10 Q1020 NOSIG
  • 031925Z AUTO 32007KT 290V360 9999 NCD 18/10 Q1019 NOSIG
  • 031855Z AUTO 32007KT 9999 NCD 19/10 Q1019 NOSIG
  • 031825Z AUTO 32009KT 270V360 9999 NCD 20/11 Q1019 NOSIG

TAF TAF EHBK
Valid from the 03 at 18:00 until the 05 at 00:00 UTC


031708Z 0318/0424 27007KT CAVOK



MET'MAP, your aeronautical weather chart ! - Copyright ORBIFLY December 2007 - Disclaimer

ORBIFLY MET'MAP TEAM :

Programming & Development : Alexandra Zaïnal
Original concept : Baudouin d'Aumeries
Technical & hardware support : Manuel Goepfert
Assistance : Marc-Olivier Méhu




SOURCES & CREDITS :

   NOAA